CheckWX is a tool to help pilots better visualize weather data.  It is not intended as a substitute for an official pre-flight weather briefing.

12:54:19 UTC

KPBX METAR
Pike County-Hatcher Field Airport
Pikeville, Kentucky, USA
Current

19 mins ago

KPBX 221235Z AUTO 04004KT 10SM OVC004 04/04 A3031 RMK AO2 T00430043
Observed
Feb-22 @ 12:35 UTC
Wind
  • 040° at 4 KTS
Visibility
10 SM
Flight Rules
LIFR
Cloud Levels
  • Overcast at 400' AGL
Temperature
C / 39°F
Dewpoint
C / 39°F
Humidity
100%
Altimeter
30.31" Hg
Pressure
1026.42 hPa
Previous

39 mins ago

KPBX 221215Z AUTO 02004KT 10SM OVC004 04/04 A3030 RMK AO2 T00430043
Observed
Feb-22 @ 12:15 UTC
Wind
  • 020° at 4 KTS
Visibility
10 SM
Flight Rules
LIFR
Cloud Levels
  • Overcast at 400' AGL
Temperature
C / 39°F
Dewpoint
C / 39°F
Humidity
100%
Altimeter
30.3" Hg
Pressure
1026.12 hPa
Previous

59 mins ago

KPBX 221155Z AUTO 02007KT 10SM OVC004 04/04 A3028 RMK AO2 T00430043 10047 20043
Observed
Feb-22 @ 11:55 UTC
Wind
  • 020° at 7 KTS
Visibility
10 SM
Flight Rules
LIFR
Cloud Levels
  • Overcast at 400' AGL
Temperature
C / 39°F
Dewpoint
C / 39°F
Humidity
100%
Altimeter
30.28" Hg
Pressure
1025.42 hPa